Aeroporto :
LOGIN :

Iscrizione | Disclaimer

   EN    FR    IT 

 










Sommario :    VFR   VFR Marginale   IFR   IFR Intensivo   IFR Molto Intensivo
Visibilità : 
Base nubi : 
>= 8 km
>= 3000ft
5 / 8 km
1000 / 3000 ft
1500m / 5 km
500 / 1000 ft
800 / 1500m
200 / 500 ft
< 800m
< 200 ft
Simboli :   Temporali  Nebbia  Neve Forte  Precipitazioni Forti  Vento > 20 kt
SIGMETs :   Varie  Temporali  Ghiacco  Turbolenza  Onda orograficha  Ceneri Vulcaniche






- Altitudine del aeroporto : 584 ft


LFPV - Villacoublay Vélizy

ULTIMO METAR :
  • 121330Z AUTO 25005KT 200V290 9999 FEW028/// SCT039/// ///CB 08/04 Q1004 TEMPO 24015G25KT 4000 -SHRA

METARs OBSOLETI :
  • 121300Z AUTO 27005KT 220V300 9999 FEW021/// SCT027/// BKN046/// ///TCU 06/05 Q1004 TEMPO 24015G25KT 4000 -SHRA SCT020CB
  • 121230Z AUTO 33006KT 6000 -RA FEW013/// BKN023/// BKN028/// ///CB 04/03 Q1004 TEMPO 24015G25KT 4000 -SHRA
  • 121200Z AUTO 24011KT 210V270 9999 BKN020/// BKN026/// BKN034/// ///CB 08/04 Q1004 TEMPO 24015G25KT 4000 -SHRA
  • 121130Z AUTO 26011KT 9999 FEW022/// SCT048/// BKN096/// ///TCU 08/04 Q1004 TEMPO 24015G25KT 4000 -SHRA SCT020CB
  • 121100Z AUTO 25012KT 9999 SCT017 BKN022 BKN032 07/04 Q1004 TEMPO 24015G25KT 4000 -SHRA SCT020CB

TAF TAF LFPV
Valido dal 12 a 09 ore il 13 a 09 ore UTC


120800Z 1209/1309 24010KT 9999 BKN015
TEMPO 1211/1216 24015G25KT 4000 -SHRA SCT020CB
BECMG 1221/1222 24005KT BKN010
TEMPO 1222/1304 4000 -RA
TEMPO 1308/1309 4000 -SHRA SCT015TCU



MetMap, La meteo Aeronautica in un colpo d'occhio ! - Copyright ORBIFLY Dicembre 2007 - Disclaimer

ORBIFLY MET'MAP TEAM :

Programmazione e sviluppo : Alexandra Zaïnal
Concezione e sviluppo : Baudouin d'Aumeries
Co-Programmazione e sviluppo : Marc-Olivier Méhu
Supporto tecnico e logistico : Manuel Goepfert
Aiuto per la traduzione : Arnaldo La Scala

Contatto : metmap@orbifly.com




FONTI E CREDITI :

   NOAA